aviador You're here:

CYYN Decoded Metar

SWIFT CURRENT in SK, CANADA
Report Time2018-01-22 19:00:00
UTC Time2018-01-22 20:02:20
Flight Rules vfr VFR
Wind250° at 18 Gusting to 23 kt
W.Decomp.*RWY 22: 17.2 kt HW 5.3 kt RCW
RWY 30: 8.2 kt HW 16 kt LCW
W.Rank250° ranks 4
Current wind is above 250° avg. (11.2)
Visibility9999 m
Phenomena:N/A
Clouds:Broken 190 Hf
Broken 210 Hf
Expected CloudBase > 4,000 ft AGL from Temp-Dew spread
Ceiling19,000 ft
Temp03°C (ISA -7)
Dew Point-7°C (48% RH)
AAT-6.3°C
QNH1010 hPa
Density Alt2,041 ft
Elevation2,684 ft
Report Wrong Elevation
Raw Report
CYYN 221900Z AUTO 25018G23KT 9SM BKN190 BKN210 03/M07 A2982 RMK
SLP131=

Extra information for CYYN:More info

Metar Taf Metar & Taf Last 4 Metars F.Rules Stats Wind Profile Meteogram Temp Stats Airport Information Weather charts Add Link Nearby VenuesMetar ALERT Operation Metar Decoded Social comments